Time;durP1;ratioP1;P1;durP2;ratioP2;P2;SDS_P1;SDS_P2;PMS_P1;PMS_P2;Temp;Humidity;BMP_temperature;BMP_pressure;BME280_temperature;BME280_humidity;BME280_pressure;Samples;Min_cycle;Max_cycle;Signal;HPM_P1;HPM_P2
2023/12/02 00:02:17;;;;;;;14.73;6.07;;;-5.80;99.90;;;;;;4982812;28;20049;-65
2023/12/02 00:04:42;;;;;;;11.25;5.53;;;-5.80;99.90;;;;;;4978565;28;20101;-64
2023/12/02 00:07:09;;;;;;;13.90;6.35;;;-5.80;99.90;;;;;;4981694;28;20406;-64
2023/12/02 00:09:35;;;;;;;12.13;5.63;;;-5.90;99.90;;;;;;4981534;28;20022;-64
2023/12/02 00:12:00;;;;;;;16.13;5.82;;;-5.90;99.90;;;;;;4981545;28;20034;-64
2023/12/02 00:14:26;;;;;;;13.90;6.05;;;-6.00;99.90;;;;;;4981643;28;20064;-64
2023/12/02 00:16:51;;;;;;;15.13;6.10;;;-6.00;99.90;;;;;;4980185;28;20113;-63
2023/12/02 00:19:17;;;;;;;17.00;6.00;;;-6.10;99.90;;;;;;4982177;28;20066;-64
2023/12/02 00:21:42;;;;;;;14.07;6.53;;;-6.10;99.90;;;;;;4980462;28;20038;-64
2023/12/02 00:24:08;;;;;;;18.52;7.47;;;-6.20;99.90;;;;;;4980904;28;20223;-64
2023/12/02 00:26:33;;;;;;;12.57;6.20;;;-6.30;99.90;;;;;;4979579;28;20069;-63
2023/12/02 00:28:59;;;;;;;16.60;6.00;;;-6.30;99.90;;;;;;4980854;28;20548;-63
2023/12/02 00:31:24;;;;;;;11.93;5.35;;;-6.40;99.90;;;;;;4981068;28;20022;-64
2023/12/02 00:33:50;;;;;;;17.58;7.32;;;-6.40;99.90;;;;;;4981021;28;20509;-65
2023/12/02 00:36:15;;;;;;;15.73;6.90;;;-6.30;99.90;;;;;;4977170;28;20041;-61
2023/12/02 00:38:41;;;;;;;13.85;5.60;;;-6.30;99.90;;;;;;4980738;28;20038;-64
2023/12/02 00:41:11;;;;;;;14.57;6.38;;;-6.40;99.90;;;;;;4980815;28;20035;-64
2023/12/02 00:43:36;;;;;;;17.98;7.05;;;-6.40;99.90;;;;;;4980454;28;20045;-64
2023/12/02 00:46:02;;;;;;;17.35;6.72;;;-6.40;99.90;;;;;;4980749;28;20046;-62
2023/12/02 00:48:27;;;;;;;15.88;6.95;;;-6.50;99.90;;;;;;4978627;28;20035;-64
2023/12/02 00:50:53;;;;;;;13.57;5.55;;;-6.50;99.90;;;;;;4980076;28;20026;-65
2023/12/02 00:53:19;;;;;;;13.23;5.10;;;-6.50;99.90;;;;;;4980691;28;20098;-65
2023/12/02 00:55:45;;;;;;;14.00;6.30;;;-6.60;99.90;;;;;;4980548;28;20050;-64
2023/12/02 00:58:10;;;;;;;13.40;5.95;;;-6.60;99.90;;;;;;4980566;28;20451;-64
2023/12/02 01:00:35;;;;;;;15.57;5.93;;;-6.60;99.90;;;;;;4982265;28;20077;-64
2023/12/02 01:03:01;;;;;;;15.05;7.13;;;-6.60;99.90;;;;;;4980115;28;20109;-65
2023/12/02 01:05:26;;;;;;;14.40;5.55;;;-6.70;99.90;;;;;;4980287;28;20392;-63
2023/12/02 01:07:52;;;;;;;13.98;6.10;;;-6.70;99.90;;;;;;4978256;28;20041;-64
2023/12/02 01:10:17;;;;;;;15.02;6.93;;;-6.70;99.90;;;;;;4978708;28;20506;-65
2023/12/02 01:12:43;;;;;;;13.65;5.22;;;-6.80;99.90;;;;;;4980371;28;20034;-64
2023/12/02 01:15:09;;;;;;;12.95;5.55;;;-6.80;99.90;;;;;;4980167;28;20025;-64
2023/12/02 01:17:34;;;;;;;12.38;5.45;;;-6.80;99.90;;;;;;4982197;28;20034;-64
2023/12/02 01:20:00;;;;;;;13.88;6.03;;;-6.80;99.90;;;;;;4980220;28;20375;-64
2023/12/02 01:22:25;;;;;;;13.15;5.30;;;-6.90;99.90;;;;;;4980096;28;20046;-63
2023/12/02 01:24:51;;;;;;;14.47;5.83;;;-6.90;99.90;;;;;;4980127;28;20092;-64
2023/12/02 01:27:16;;;;;;;12.77;5.57;;;-6.90;99.90;;;;;;4976198;28;20495;-64
2023/12/02 01:29:42;;;;;;;14.90;6.65;;;-6.80;99.90;;;;;;4980100;28;20427;-62
2023/12/02 01:32:07;;;;;;;13.02;5.07;;;-6.80;99.90;;;;;;4981251;28;20631;-65
2023/12/02 01:34:33;;;;;;;13.23;5.45;;;-6.90;99.90;;;;;;4980044;28;20105;-64
2023/12/02 01:36:58;;;;;;;13.82;5.38;;;-6.90;99.90;;;;;;4974070;28;20026;-64
2023/12/02 01:39:24;;;;;;;11.70;5.15;;;-6.90;99.90;;;;;;4980083;28;20080;-64
2023/12/02 01:41:49;;;;;;;13.93;4.95;;;-6.90;99.90;;;;;;4980174;28;20030;-64
2023/12/02 01:44:15;;;;;;;15.07;5.60;;;-6.90;99.90;;;;;;4980453;28;20046;-64
2023/12/02 01:46:40;;;;;;;12.55;5.75;;;-7.00;99.90;;;;;;4979948;28;20029;-64
2023/12/02 01:49:08;;;;;;;14.25;6.18;;;-7.00;99.90;;;;;;4979921;28;20470;-64
2023/12/02 01:51:34;;;;;;;11.43;4.47;;;-7.00;99.90;;;;;;4979546;28;20156;-64
2023/12/02 01:54:00;;;;;;;13.60;4.45;;;-7.00;99.90;;;;;;4978578;28;20030;-65
2023/12/02 01:56:26;;;;;;;16.55;6.32;;;-7.00;99.90;;;;;;4979732;28;20041;-63
2023/12/02 01:58:51;;;;;;;12.25;6.30;;;-7.00;99.90;;;;;;4979720;28;20023;-63
2023/12/02 02:01:17;;;;;;;19.42;6.80;;;-7.00;99.90;;;;;;4980627;28;20030;-62
2023/12/02 02:03:43;;;;;;;14.27;5.40;;;-7.00;99.90;;;;;;4985303;28;20050;-64
2023/12/02 02:06:09;;;;;;;14.38;5.93;;;-7.00;99.90;;;;;;4983376;28;20065;-64
2023/12/02 02:08:35;;;;;;;17.00;7.00;;;-7.10;99.90;;;;;;4983440;28;20038;-64
2023/12/02 02:11:00;;;;;;;13.02;5.55;;;-7.10;99.90;;;;;;4983556;28;20029;-64
2023/12/02 02:13:27;;;;;;;17.35;5.10;;;-7.10;99.90;;;;;;4983285;28;20610;-63
2023/12/02 02:15:53;;;;;;;18.38;6.43;;;-7.20;99.90;;;;;;4983171;28;20031;-63
2023/12/02 02:18:19;;;;;;;16.10;5.40;;;-7.20;99.90;;;;;;4985185;28;20077;-64
2023/12/02 02:20:50;;;;;;;10.73;5.03;;;-7.30;99.90;;;;;;4983336;28;20034;-64
2023/12/02 02:23:17;;;;;;;17.05;5.85;;;-7.30;99.90;;;;;;4983156;28;20047;-64
2023/12/02 02:25:42;;;;;;;12.55;6.32;;;-7.20;99.90;;;;;;4983092;28;20510;-63
2023/12/02 02:28:08;;;;;;;15.20;5.70;;;-7.30;99.90;;;;;;4981779;28;20275;-64
2023/12/02 02:30:33;;;;;;;13.18;5.32;;;-7.20;99.90;;;;;;4983332;28;20058;-63
2023/12/02 02:32:59;;;;;;;17.48;6.47;;;-7.20;99.90;;;;;;4983087;28;20034;-62
2023/12/02 02:35:24;;;;;;;13.13;5.50;;;-7.20;99.90;;;;;;4984962;28;20026;-65
2023/12/02 02:37:50;;;;;;;14.05;5.55;;;-7.20;99.90;;;;;;4979456;28;20019;-64
2023/12/02 02:40:15;;;;;;;15.32;5.70;;;-7.20;99.90;;;;;;4982966;28;20523;-64
2023/12/02 02:42:41;;;;;;;18.27;7.15;;;-7.20;99.90;;;;;;4982696;28;20042;-64
2023/12/02 02:45:07;;;;;;;17.00;6.72;;;-7.20;99.90;;;;;;4982870;28;20035;-64
2023/12/02 02:47:32;;;;;;;13.00;5.13;;;-7.20;99.90;;;;;;4983300;28;20099;-73
2023/12/02 02:49:58;;;;;;;17.90;5.90;;;-7.20;99.90;;;;;;4983245;28;20031;-72
2023/12/02 02:52:23;;;;;;;16.17;6.57;;;-7.20;99.90;;;;;;4985057;28;20169;-74
2023/12/02 02:54:48;;;;;;;17.95;7.05;;;-7.20;99.90;;;;;;4983322;28;20383;-74
2023/12/02 02:57:14;;;;;;;12.43;5.30;;;-7.20;99.90;;;;;;4983051;28;20041;-73
2023/12/02 02:59:39;;;;;;;12.55;4.40;;;-7.20;99.90;;;;;;4983158;28;20045;-74
2023/12/02 03:02:05;;;;;;;11.88;5.57;;;-7.30;99.90;;;;;;4982868;28;20038;-73
2023/12/02 03:04:30;;;;;;;16.67;5.75;;;-7.30;99.90;;;;;;4983025;28;20070;-72
2023/12/02 03:06:56;;;;;;;15.20;6.30;;;-7.30;99.90;;;;;;4984752;28;20026;-73
2023/12/02 03:09:21;;;;;;;14.43;6.22;;;-7.30;99.90;;;;;;4982905;28;20040;-73
2023/12/02 03:11:48;;;;;;;15.88;5.32;;;-7.40;99.90;;;;;;4978688;28;20030;-74
2023/12/02 03:14:14;;;;;;;19.48;6.22;;;-7.40;99.90;;;;;;4982910;28;20015;-74
2023/12/02 03:16:39;;;;;;;15.68;6.00;;;-7.40;99.90;;;;;;4982520;28;20085;-73
2023/12/02 03:19:05;;;;;;;13.20;4.82;;;-7.40;99.90;;;;;;4982842;28;20034;-73
2023/12/02 03:21:30;;;;;;;13.33;5.77;;;-7.40;99.90;;;;;;4982985;28;20030;-72
2023/12/02 03:23:56;;;;;;;15.68;5.95;;;-7.40;99.90;;;;;;4983092;28;20037;-73
2023/12/02 03:26:23;;;;;;;13.20;4.82;;;-7.40;99.90;;;;;;4982585;28;20060;-73
2023/12/02 03:28:49;;;;;;;16.13;5.97;;;-7.40;99.90;;;;;;4982374;28;20023;-73
2023/12/02 03:31:14;;;;;;;14.67;5.77;;;-7.40;99.90;;;;;;4981146;28;20041;-73
2023/12/02 03:33:39;;;;;;;17.30;6.35;;;-7.40;99.90;;;;;;4982468;28;20052;-73
2023/12/02 03:36:06;;;;;;;14.45;6.30;;;-7.40;99.90;;;;;;4981095;28;20104;-72
2023/12/02 03:38:31;;;;;;;13.90;5.43;;;-7.40;99.90;;;;;;4982282;28;20046;-72
2023/12/02 03:40:59;;;;;;;14.05;5.70;;;-7.40;99.90;;;;;;4982533;28;20042;-73
2023/12/02 03:43:25;;;;;;;20.55;7.28;;;-7.30;99.90;;;;;;4981715;28;20058;-73
2023/12/02 03:45:50;;;;;;;16.33;5.55;;;-7.30;99.90;;;;;;4981545;28;20042;-72
2023/12/02 03:48:15;;;;;;;14.02;5.65;;;-7.30;99.90;;;;;;4981765;28;20037;-72
2023/12/02 03:50:41;;;;;;;14.90;6.82;;;-7.30;99.90;;;;;;4979775;28;20038;-72
2023/12/02 03:53:06;;;;;;;15.87;5.50;;;-7.30;99.90;;;;;;4983301;28;20398;-72
2023/12/02 03:55:32;;;;;;;18.87;5.80;;;-7.30;99.90;;;;;;4981551;28;20046;-72
2023/12/02 03:57:57;;;;;;;14.07;5.38;;;-7.30;99.90;;;;;;4981921;28;20049;-72
2023/12/02 04:00:23;;;;;;;13.00;5.30;;;-7.30;99.90;;;;;;4981628;28;20100;-73
2023/12/02 04:02:49;;;;;;;16.58;5.32;;;-7.30;99.90;;;;;;4981310;28;20026;-72
2023/12/02 04:05:14;;;;;;;12.20;5.05;;;-7.30;99.90;;;;;;4983305;28;20025;-73
2023/12/02 04:07:40;;;;;;;11.73;4.70;;;-7.40;99.90;;;;;;4981432;28;20533;-59
2023/12/02 04:10:06;;;;;;;14.52;5.10;;;-7.40;99.90;;;;;;4981487;28;20503;-60
2023/12/02 04:12:33;;;;;;;13.13;4.70;;;-7.40;99.90;;;;;;4981258;28;20041;-56
2023/12/02 04:14:58;;;;;;;15.23;5.20;;;-7.30;99.90;;;;;;4981137;28;20101;-57
2023/12/02 04:17:24;;;;;;;15.38;5.85;;;-7.40;99.90;;;;;;4981042;28;20541;-55
2023/12/02 04:19:49;;;;;;;17.90;5.72;;;-7.30;99.90;;;;;;4981030;28;20033;-56
2023/12/02 04:22:16;;;;;;;13.15;5.50;;;-7.30;99.90;;;;;;4982723;28;20042;-56
2023/12/02 04:24:42;;;;;;;18.65;7.30;;;-7.30;99.90;;;;;;4980589;28;20050;-55
2023/12/02 04:27:07;;;;;;;21.17;6.47;;;-7.30;99.90;;;;;;4981027;28;20034;-57
2023/12/02 04:29:36;;;;;;;23.25;8.85;;;-7.30;99.90;;;;;;4980858;28;20085;-56
2023/12/02 04:32:03;;;;;;;15.88;6.57;;;-7.40;99.90;;;;;;4980879;28;20405;-56
2023/12/02 04:34:29;;;;;;;17.90;6.63;;;-7.40;99.90;;;;;;4980717;28;20118;-53
2023/12/02 04:36:55;;;;;;;17.40;7.35;;;-7.40;99.90;;;;;;4974363;28;20038;-56
2023/12/02 04:39:21;;;;;;;16.27;6.93;;;-7.50;99.90;;;;;;4982611;28;20045;-56
2023/12/02 04:41:46;;;;;;;13.98;5.85;;;-7.50;99.90;;;;;;4980723;28;20907;-56
2023/12/02 04:44:12;;;;;;;14.73;5.72;;;-7.50;99.90;;;;;;4980724;28;20030;-57
2023/12/02 04:46:37;;;;;;;17.02;6.43;;;-7.50;99.90;;;;;;4980739;28;20030;-56
2023/12/02 04:49:03;;;;;;;17.15;6.22;;;-7.60;99.90;;;;;;4980863;28;20030;-56
2023/12/02 04:51:29;;;;;;;15.05;5.70;;;-7.60;99.90;;;;;;4980365;28;20081;-57
2023/12/02 04:53:54;;;;;;;11.63;4.90;;;-7.60;99.90;;;;;;4978821;28;20045;-57
2023/12/02 04:56:20;;;;;;;14.23;5.63;;;-7.60;99.90;;;;;;4980771;28;20034;-55
2023/12/02 04:58:45;;;;;;;13.80;5.17;;;-7.50;99.90;;;;;;4980231;28;20042;-56
2023/12/02 05:01:10;;;;;;;10.45;4.30;;;-7.60;99.90;;;;;;4979378;28;20029;-56
2023/12/02 05:03:36;;;;;;;13.25;4.75;;;-7.60;99.90;;;;;;4980306;28;20034;-57
2023/12/02 05:06:01;;;;;;;13.52;5.85;;;-7.70;99.90;;;;;;4979122;28;20176;-55
2023/12/02 05:08:27;;;;;;;12.63;5.18;;;-7.70;99.90;;;;;;4982179;28;20037;-57
2023/12/02 05:10:52;;;;;;;10.93;5.15;;;-7.70;99.90;;;;;;4980492;28;20042;-56
2023/12/02 05:13:18;;;;;;;10.02;4.68;;;-7.80;99.90;;;;;;4980359;28;20049;-53
2023/12/02 05:15:44;;;;;;;12.43;4.80;;;-7.80;99.90;;;;;;4976339;28;20065;-57
2023/12/02 05:18:09;;;;;;;10.93;4.60;;;-7.80;99.90;;;;;;4980245;28;20109;-56
2023/12/02 05:20:35;;;;;;;14.63;6.03;;;-7.80;99.90;;;;;;4980324;28;20101;-55
2023/12/02 05:23:00;;;;;;;12.95;5.47;;;-7.80;99.90;;;;;;4981921;28;20487;-57
2023/12/02 05:25:26;;;;;;;14.40;6.20;;;-7.80;99.90;;;;;;4980369;28;20037;-56
2023/12/02 05:27:51;;;;;;;19.27;5.83;;;-7.80;99.90;;;;;;4980285;28;20042;-56
2023/12/02 05:30:18;;;;;;;13.23;5.57;;;-7.80;99.90;;;;;;4980236;28;20133;-55
2023/12/02 05:32:43;;;;;;;21.80;7.77;;;-7.80;99.90;;;;;;4980289;28;20030;-57
2023/12/02 05:35:10;;;;;;;14.93;6.20;;;-7.70;99.90;;;;;;4980266;28;20648;-56
2023/12/02 05:37:36;;;;;;;11.10;4.73;;;-7.70;99.90;;;;;;4978855;28;20037;-55
2023/12/02 05:40:03;;;;;;;19.55;8.18;;;-7.60;99.90;;;;;;4986162;28;20026;-58
2023/12/02 05:42:28;;;;;;;15.77;6.97;;;-7.60;99.90;;;;;;4984070;28;20105;-55
2023/12/02 05:44:54;;;;;;;16.45;6.35;;;-7.60;99.90;;;;;;4983902;28;20857;-55
2023/12/02 05:47:19;;;;;;;14.80;6.05;;;-7.50;99.90;;;;;;4983997;28;20536;-56
2023/12/02 05:49:45;;;;;;;20.48;7.40;;;-7.50;99.90;;;;;;4983844;28;20092;-56
2023/12/02 05:52:10;;;;;;;18.73;7.72;;;-7.50;99.90;;;;;;4984140;28;20030;-56
2023/12/02 05:54:36;;;;;;;22.65;7.65;;;-7.50;99.90;;;;;;4985761;28;20034;-56
2023/12/02 05:57:01;;;;;;;18.08;6.53;;;-7.50;99.90;;;;;;4979890;28;20034;-57
2023/12/02 05:59:27;;;;;;;14.93;6.65;;;-7.40;99.90;;;;;;4983962;28;20452;-55
2023/12/02 06:01:52;;;;;;;23.10;7.05;;;-7.40;99.90;;;;;;4983589;28;20585;-57
2023/12/02 06:04:18;;;;;;;14.05;5.38;;;-7.40;99.90;;;;;;4983727;28;20537;-57
2023/12/02 06:06:47;;;;;;;14.93;5.82;;;-7.40;99.90;;;;;;4983668;28;20026;-56
2023/12/02 06:09:13;;;;;;;18.33;6.97;;;-7.30;99.90;;;;;;4983618;28;20522;-57
2023/12/02 06:11:38;;;;;;;18.80;7.50;;;-7.40;99.90;;;;;;4985519;28;20026;-57
2023/12/02 06:14:05;;;;;;;16.60;6.07;;;-7.30;99.90;;;;;;4981120;28;20033;-55
2023/12/02 06:16:30;;;;;;;14.88;6.95;;;-7.30;99.90;;;;;;4982198;28;20034;-57
2023/12/02 06:18:56;;;;;;;16.42;6.18;;;-7.30;99.90;;;;;;4983257;28;20029;-57
2023/12/02 06:21:21;;;;;;;18.45;7.18;;;-7.30;99.90;;;;;;4983364;28;20057;-55
2023/12/02 06:23:47;;;;;;;15.18;5.45;;;-7.20;99.90;;;;;;5005694;28;20636;-58
2023/12/02 06:26:13;;;;;;;14.00;5.63;;;-7.20;99.90;;;;;;4985015;28;20108;-56
2023/12/02 06:28:39;;;;;;;15.68;5.82;;;-7.20;99.90;;;;;;4983307;28;20018;-56
2023/12/02 06:31:12;;;;;;;20.33;6.65;;;-7.10;99.90;;;;;;4983342;28;20019;-52
2023/12/02 06:33:38;;;;;;;15.48;7.25;;;-7.10;99.90;;;;;;4983065;28;20033;-56
2023/12/02 06:36:04;;;;;;;26.05;9.95;;;-7.10;99.90;;;;;;4982969;28;20039;-56
2023/12/02 06:38:30;;;;;;;18.25;7.05;;;-7.10;99.90;;;;;;4977392;28;20061;-57
2023/12/02 06:40:55;;;;;;;18.40;6.78;;;-7.10;99.90;;;;;;4982968;28;20534;-57
2023/12/02 06:43:21;;;;;;;17.55;6.43;;;-7.10;99.90;;;;;;4984599;28;20053;-57
2023/12/02 06:45:46;;;;;;;20.10;7.13;;;-7.10;99.90;;;;;;4980243;28;20057;-57
2023/12/02 06:48:12;;;;;;;16.63;6.85;;;-7.10;99.90;;;;;;4982500;28;20403;-58
2023/12/02 06:50:38;;;;;;;21.88;7.53;;;-7.10;99.90;;;;;;4981318;28;20061;-57
2023/12/02 06:53:03;;;;;;;19.85;7.32;;;-7.20;99.90;;;;;;4982717;28;20506;-57
2023/12/02 06:55:31;;;;;;;17.17;6.50;;;-7.20;99.90;;;;;;4978626;28;20037;-57
2023/12/02 06:57:58;;;;;;;21.20;7.32;;;-7.20;99.90;;;;;;4983420;28;20022;-57
2023/12/02 07:00:25;;;;;;;18.70;6.25;;;-7.20;99.90;;;;;;4980757;28;20030;-57
2023/12/02 07:02:50;;;;;;;17.90;7.55;;;-7.20;99.90;;;;;;4982349;28;20062;-57
2023/12/02 07:05:16;;;;;;;17.73;6.63;;;-7.20;99.90;;;;;;4982495;28;20072;-55
2023/12/02 07:07:42;;;;;;;21.17;7.93;;;-7.20;99.90;;;;;;4982250;28;20045;-56
2023/12/02 07:10:09;;;;;;;18.88;7.18;;;-7.20;99.90;;;;;;4982487;28;20053;-58
2023/12/02 07:12:35;;;;;;;19.75;6.85;;;-7.10;99.90;;;;;;4981967;28;20030;-57
2023/12/02 07:15:00;;;;;;;16.98;6.03;;;-7.10;99.90;;;;;;4984072;28;20041;-58
2023/12/02 07:17:26;;;;;;;17.67;6.32;;;-7.10;99.90;;;;;;4982110;28;20034;-58
2023/12/02 07:19:51;;;;;;;19.60;5.90;;;-7.10;99.90;;;;;;4982185;28;20426;-57
2023/12/02 07:22:17;;;;;;;19.00;6.80;;;-7.10;99.90;;;;;;4981929;28;20034;-58
2023/12/02 07:24:42;;;;;;;17.85;6.75;;;-7.00;99.90;;;;;;4982005;28;20157;-58
2023/12/02 07:27:08;;;;;;;16.85;6.05;;;-7.00;99.90;;;;;;4981799;28;20045;-57
2023/12/02 07:29:33;;;;;;;17.35;6.75;;;-6.90;99.90;;;;;;4978536;28;20019;-58
2023/12/02 07:31:59;;;;;;;17.83;6.38;;;-6.90;99.90;;;;;;4982020;28;20064;-58
2023/12/02 07:34:24;;;;;;;23.02;7.53;;;-6.80;99.90;;;;;;4982000;28;20022;-58
2023/12/02 07:36:50;;;;;;;15.68;5.57;;;-6.80;99.90;;;;;;4976246;28;20031;-56
2023/12/02 07:39:16;;;;;;;19.27;7.10;;;-6.80;99.90;;;;;;4981781;28;20038;-58
2023/12/02 07:41:42;;;;;;;21.63;7.00;;;-6.70;99.90;;;;;;4981629;28;20525;-58
2023/12/02 07:57:15;;;;;;;27.63;11.27;;;-6.60;99.90;;;;;;5101705;27;20374;-63
2023/12/02 07:59:41;;;;;;;24.27;9.75;;;-6.20;99.90;;;;;;5084572;28;20024;-64
2023/12/02 08:02:06;;;;;;;25.20;8.98;;;-6.20;99.90;;;;;;5084440;28;20035;-63
2023/12/02 08:04:32;;;;;;;26.02;9.25;;;-6.10;99.90;;;;;;5084471;28;20116;-60
2023/12/02 08:06:57;;;;;;;30.20;9.55;;;-6.00;99.90;;;;;;5083214;28;20044;-60
2023/12/02 08:09:23;;;;;;;28.55;8.90;;;-5.90;99.90;;;;;;5081079;28;20051;-59
2023/12/02 08:11:48;;;;;;;31.00;9.70;;;-5.80;99.90;;;;;;5084331;28;20115;-59
2023/12/02 08:14:14;;;;;;;35.42;9.90;;;-5.80;99.90;;;;;;5084494;28;20020;-59
2023/12/02 08:16:40;;;;;;;28.80;10.32;;;-5.70;99.90;;;;;;5075976;28;20031;-59
2023/12/02 08:19:05;;;;;;;22.83;8.90;;;-5.60;99.90;;;;;;5068953;28;20028;-60
2023/12/02 08:21:31;;;;;;;28.02;9.75;;;-5.60;99.90;;;;;;5074920;28;20489;-59
2023/12/02 08:23:57;;;;;;;32.80;9.60;;;-5.50;99.90;;;;;;5077285;28;20030;-60
2023/12/02 08:26:22;;;;;;;25.55;10.10;;;-5.40;99.90;;;;;;5074288;28;20060;-60
2023/12/02 08:28:48;;;;;;;24.95;8.32;;;-5.40;99.90;;;;;;5074503;28;20627;-60
2023/12/02 08:31:14;;;;;;;22.35;8.85;;;-5.30;99.90;;;;;;5074573;28;20024;-59
2023/12/02 08:33:40;;;;;;;30.42;9.45;;;-5.20;99.90;;;;;;5074611;28;20467;-60
2023/12/02 08:36:06;;;;;;;29.90;9.45;;;-5.20;99.90;;;;;;5075406;28;20048;-59
2023/12/02 08:38:32;;;;;;;23.40;8.32;;;-5.10;99.90;;;;;;5076045;28;20024;-59
2023/12/02 08:40:58;;;;;;;29.35;8.80;;;-5.10;99.90;;;;;;5072704;28;20481;-60
2023/12/02 08:43:24;;;;;;;23.17;8.55;;;-5.00;99.90;;;;;;5075706;28;20027;-59
2023/12/02 08:45:49;;;;;;;19.45;7.30;;;-4.90;99.90;;;;;;5065475;28;20622;-59
2023/12/02 08:48:15;;;;;;;19.52;7.68;;;-4.90;99.90;;;;;;5056924;28;20379;-59
2023/12/02 08:50:40;;;;;;;19.30;7.43;;;-4.80;99.90;;;;;;5055195;28;20025;-59
2023/12/02 08:53:07;;;;;;;22.67;8.23;;;-4.80;99.90;;;;;;5054719;28;20036;-59
2023/12/02 08:55:33;;;;;;;16.48;6.30;;;-4.70;99.90;;;;;;5049173;28;20474;-60
2023/12/02 08:57:58;;;;;;;22.55;9.60;;;-4.60;99.90;;;;;;5043776;28;20432;-60
2023/12/02 09:00:24;;;;;;;21.63;8.27;;;-4.50;99.90;;;;;;5040495;28;20119;-60
2023/12/02 09:02:50;;;;;;;22.58;8.00;;;-4.50;99.90;;;;;;5041660;28;20040;-60
2023/12/02 09:05:15;;;;;;;16.83;7.13;;;-4.40;99.90;;;;;;5036291;28;20452;-59
2023/12/02 09:07:41;;;;;;;22.92;7.75;;;-4.30;99.90;;;;;;5037708;28;20028;-59
2023/12/02 09:10:08;;;;;;;14.80;6.82;;;-4.30;99.90;;;;;;5042124;28;20025;-59
2023/12/02 09:12:34;;;;;;;21.55;8.32;;;-4.20;99.90;;;;;;5039633;28;20033;-60
2023/12/02 09:15:10;;;;;;;16.65;6.50;;;-4.10;99.90;;;;;;5041523;28;20085;-60
2023/12/02 09:18:07;;;;;;;18.95;7.38;;;-4.00;99.90;;;;;;5038821;28;20040;-59
2023/12/02 09:20:47;;;;;;;22.50;7.82;;;-3.90;99.90;;;;;;5040820;28;20042;-60
2023/12/02 09:23:14;;;;;;;20.30;7.85;;;-3.90;99.90;;;;;;5039812;28;20043;-59
2023/12/02 09:25:41;;;;;;;18.92;8.05;;;-3.90;99.90;;;;;;5039062;28;20036;-61
2023/12/02 09:28:07;;;;;;;19.48;7.85;;;-3.80;99.90;;;;;;5041478;28;20482;-60
2023/12/02 09:30:38;;;;;;;19.80;7.65;;;-3.70;99.90;;;;;;5040983;28;20036;-59
2023/12/02 09:33:04;;;;;;;17.20;7.22;;;-3.70;99.90;;;;;;5041002;28;20040;-59
2023/12/02 09:35:31;;;;;;;14.68;6.85;;;-3.60;99.90;;;;;;5040921;28;20029;-59
2023/12/02 09:37:58;;;;;;;17.75;8.32;;;-3.50;99.90;;;;;;5039548;28;20106;-60
2023/12/02 09:40:37;;;;;;;15.10;6.25;;;-3.40;99.90;;;;;;5039001;28;20071;-60
2023/12/02 09:43:24;;;;;;;14.05;6.28;;;-3.40;99.90;;;;;;5039944;28;20096;-60
2023/12/02 09:46:02;;;;;;;14.23;6.25;;;-3.30;99.90;;;;;;5037832;28;20405;-59
2023/12/02 09:48:34;;;;;;;14.48;6.55;;;-3.30;99.90;;;;;;5036746;28;20041;-59
2023/12/02 09:51:06;;;;;;;14.90;6.57;;;-3.30;99.90;;;;;;5040407;28;20485;-59
2023/12/02 09:54:05;;;;;;;15.60;6.32;;;-3.20;99.90;;;;;;5039737;28;20044;-60
2023/12/02 09:56:38;;;;;;;13.40;6.00;;;-3.10;99.90;;;;;;5019954;28;20083;-59
2023/12/02 09:59:26;;;;;;;14.55;6.50;;;-2.80;99.90;;;;;;5039378;28;20025;-57
2023/12/02 10:02:07;;;;;;;17.35;7.30;;;-2.60;99.90;;;;;;5025171;28;20033;-57
2023/12/02 10:05:14;;;;;;;15.30;7.18;;;-2.50;99.90;;;;;;5030088;28;20036;-57
2023/12/02 10:07:40;;;;;;;;;;;-2.50;99.90;;;;;;5033202;28;20049;-58
2023/12/02 10:10:13;;;;;;;15.87;6.57;;;-2.50;99.90;;;;;;5036974;28;20446;-60
2023/12/02 10:12:46;;;;;;;13.73;6.35;;;-2.60;99.90;;;;;;5028803;28;20033;-58
2023/12/02 10:15:12;;;;;;;16.17;7.25;;;-2.60;99.90;;;;;;5035363;28;20025;-57
2023/12/02 10:17:50;;;;;;;17.10;7.22;;;-2.60;99.90;;;;;;5037709;28;20049;-57
2023/12/02 10:20:17;;;;;;;16.05;6.55;;;-2.50;99.90;;;;;;5036832;28;20033;-57
2023/12/02 10:22:49;;;;;;;16.33;6.80;;;-2.50;99.90;;;;;;5038040;28;20048;-57
2023/12/02 10:25:33;;;;;;;14.68;6.70;;;-2.50;99.90;;;;;;5036085;28;20095;-57
2023/12/02 10:28:22;;;;;;;14.48;5.68;;;-2.60;99.90;;;;;;5030488;28;20029;-57
2023/12/02 10:30:51;;;;;;;15.77;7.65;;;-2.70;99.90;;;;;;5033267;28;20033;-57
2023/12/02 10:33:25;;;;;;;17.88;7.28;;;-2.70;99.90;;;;;;5037664;28;20028;-57
2023/12/02 10:35:57;;;;;;;16.95;7.57;;;-2.80;99.90;;;;;;5037639;28;20033;-58
2023/12/02 10:38:35;;;;;;;15.90;6.78;;;-2.80;99.90;;;;;;5038553;28;20907;-59
2023/12/02 10:41:25;;;;;;;16.48;7.20;;;-2.60;99.90;;;;;;5041902;28;20036;-59
2023/12/02 10:43:55;;;;;;;15.27;6.90;;;-2.80;99.90;;;;;;5036960;28;20056;-58
2023/12/02 10:46:22;;;;;;;13.73;6.10;;;-2.70;99.90;;;;;;5035602;28;20032;-58
2023/12/02 10:48:48;;;;;;;15.77;6.47;;;-2.70;99.90;;;;;;5039946;28;20028;-58
2023/12/02 10:51:15;;;;;;;15.40;5.80;;;-2.70;99.90;;;;;;5039897;28;20045;-58
2023/12/02 10:53:42;;;;;;;14.57;6.10;;;-2.60;99.90;;;;;;5035210;28;20043;-60
2023/12/02 10:56:16;;;;;;;13.00;6.07;;;-2.60;99.90;;;;;;5036567;28;20099;-59
2023/12/02 10:58:43;;;;;;;15.88;8.25;;;-2.60;99.90;;;;;;5039818;28;20017;-59
2023/12/02 11:01:10;;;;;;;16.38;7.32;;;-2.60;99.90;;;;;;5038475;28;20036;-59
2023/12/02 11:03:51;;;;;;;16.08;7.47;;;-2.70;99.90;;;;;;5041423;28;20057;-60
2023/12/02 11:06:22;;;;;;;14.27;6.65;;;-2.80;99.90;;;;;;5037420;28;20627;-59
2023/12/02 11:08:55;;;;;;;14.52;7.13;;;-2.80;99.90;;;;;;5033655;28;20031;-60
2023/12/02 11:11:35;;;;;;;12.95;6.40;;;-2.70;99.90;;;;;;5037189;28;20044;-60
2023/12/02 11:14:02;;;;;;;13.13;6.72;;;-2.70;99.90;;;;;;5033422;28;20124;-60
2023/12/02 11:16:44;;;;;;;13.52;6.75;;;-2.70;99.90;;;;;;5035973;28;20071;-60
2023/12/02 11:19:29;;;;;;;13.70;8.18;;;-2.70;99.90;;;;;;5030064;28;20032;-58
2023/12/02 11:22:25;;;;;;;14.25;6.50;;;-2.70;99.90;;;;;;5035146;28;20029;-60
2023/12/02 11:24:59;;;;;;;14.25;5.57;;;-2.70;99.90;;;;;;5034466;28;20049;-60
2023/12/02 11:28:05;;;;;;;13.15;5.97;;;-2.70;99.90;;;;;;5037175;28;20033;-59
2023/12/02 11:30:45;;;;;;;13.38;6.70;;;-2.70;99.90;;;;;;5035253;28;20116;-58
2023/12/02 11:33:22;;;;;;;11.80;6.55;;;-2.70;99.90;;;;;;5035682;28;20021;-58
2023/12/02 11:35:57;;;;;;;14.93;6.22;;;-2.80;99.90;;;;;;5033900;28;20048;-58
2023/12/02 11:38:27;;;;;;;10.70;5.10;;;-2.80;99.90;;;;;;5034001;28;20056;-57
2023/12/02 11:41:04;;;;;;;13.02;6.28;;;-2.80;99.90;;;;;;5036659;28;20049;-60
2023/12/02 11:43:46;;;;;;;14.68;6.90;;;-2.80;99.90;;;;;;5036493;28;20497;-58
2023/12/02 11:46:18;;;;;;;11.98;6.32;;;-2.80;99.90;;;;;;5035161;28;20036;-58
2023/12/02 11:49:01;;;;;;;12.30;5.95;;;-2.70;99.90;;;;;;5036757;28;20758;-59
2023/12/02 11:51:46;;;;;;;11.90;5.75;;;-2.70;99.90;;;;;;5033924;28;20478;-58
2023/12/02 11:54:37;;;;;;;15.02;6.78;;;-2.70;99.90;;;;;;5029766;28;20056;-61
2023/12/02 11:57:16;;;;;;;12.82;6.03;;;-2.70;99.90;;;;;;5036622;28;20044;-61
2023/12/02 12:00:06;;;;;;;15.65;6.85;;;-2.70;99.90;;;;;;5037020;28;20037;-62
2023/12/02 12:02:38;;;;;;;12.25;5.72;;;-2.80;99.90;;;;;;5035408;28;20025;-60
2023/12/02 12:05:21;;;;;;;11.27;5.40;;;-2.80;99.90;;;;;;5036685;28;20033;-60
2023/12/02 12:07:56;;;;;;;13.13;6.45;;;-2.90;99.90;;;;;;5033058;28;20375;-59
2023/12/02 12:10:32;;;;;;;13.35;5.55;;;-2.90;99.90;;;;;;5033676;28;20022;-61
2023/12/02 12:13:00;;;;;;;14.50;6.00;;;-2.90;99.90;;;;;;5028119;28;20071;-59
2023/12/02 12:15:25;;;;;;;11.18;5.47;;;-2.90;99.90;;;;;;5034794;28;20114;-59
2023/12/02 12:17:51;;;;;;;13.05;6.75;;;-3.00;99.90;;;;;;5028995;28;20083;-59
2023/12/02 12:20:22;;;;;;;10.43;5.78;;;-2.90;99.90;;;;;;5029033;28;20537;-59
2023/12/02 12:22:48;;;;;;;13.15;5.80;;;-2.90;99.90;;;;;;5033532;28;20037;-59
2023/12/02 12:25:14;;;;;;;15.00;6.95;;;-2.90;99.90;;;;;;5031954;28;20414;-59
2023/12/02 12:27:40;;;;;;;15.40;7.55;;;-2.90;99.90;;;;;;5027608;28;20024;-60
2023/12/02 12:30:06;;;;;;;16.70;7.28;;;-2.90;99.90;;;;;;5028854;28;20476;-58
2023/12/02 12:32:32;;;;;;;14.32;7.25;;;-2.90;99.90;;;;;;5032560;28;20060;-59
2023/12/02 12:34:57;;;;;;;11.02;5.75;;;-2.90;99.90;;;;;;5037078;28;20740;-59
2023/12/02 12:37:23;;;;;;;19.70;8.82;;;-2.90;99.90;;;;;;5031327;28;20048;-60
2023/12/02 12:39:49;;;;;;;16.75;7.15;;;-2.90;99.90;;;;;;5030627;28;20104;-59
2023/12/02 12:42:19;;;;;;;18.77;8.00;;;-2.90;99.90;;;;;;5034952;28;20032;-60
2023/12/02 12:44:45;;;;;;;15.15;6.88;;;-2.90;99.90;;;;;;5032738;28;20037;-61
2023/12/02 12:47:12;;;;;;;24.95;9.93;;;-2.90;99.90;;;;;;5031402;28;20041;-59
2023/12/02 12:49:42;;;;;;;24.15;10.38;;;-2.90;99.90;;;;;;5036072;28;20033;-59
2023/12/02 12:52:09;;;;;;;37.35;14.02;;;-2.90;99.90;;;;;;5032398;28;20025;-59
2023/12/02 12:55:07;;;;;;;37.08;13.27;;;-2.90;99.90;;;;;;5024977;28;20109;-59